createdAt,value
2022-08-27T00:03:00.277Z,95.80
2022-08-27T00:06:42.387Z,96.60
2022-08-27T00:10:28.117Z,96.90
2022-08-27T00:14:10.106Z,97.00
2022-08-27T00:17:52.456Z,97.00
2022-08-27T00:21:34.666Z,97.30
2022-08-27T00:25:16.860Z,97.70
2022-08-27T00:28:58.857Z,97.70
2022-08-27T00:32:41.161Z,98.30
2022-08-27T00:36:24.272Z,98.60
2022-08-27T00:40:08.902Z,99.00
2022-08-27T00:43:54.276Z,98.40
2022-08-27T00:47:41.402Z,98.20
2022-08-27T00:51:24.560Z,99.20
2022-08-27T00:55:12.133Z,99.10
2022-08-27T00:58:55.539Z,99.40
2022-08-27T01:02:38.224Z,99.20
2022-08-27T01:06:22.022Z,99.10
2022-08-27T01:10:07.423Z,99.30
2022-08-27T01:14:00.390Z,98.90
2022-08-27T01:17:44.366Z,99.00
2022-08-27T01:21:33.041Z,98.70
2022-08-27T01:25:17.348Z,98.80
2022-08-27T01:28:59.939Z,98.80
2022-08-27T01:32:43.687Z,99.00
2022-08-27T01:36:25.911Z,99.30
2022-08-27T01:40:08.913Z,99.30
2022-08-27T01:43:52.077Z,99.10
2022-08-27T01:47:35.823Z,99.10
2022-08-27T01:51:18.114Z,99.60
2022-08-27T01:55:00.489Z,99.90
2022-08-27T01:58:43.788Z,99.80
2022-08-27T02:02:26.057Z,99.90
2022-08-27T02:06:10.659Z,99.80
2022-08-27T02:09:52.682Z,99.90
2022-08-27T02:13:34.987Z,99.90
2022-08-27T02:17:17.023Z,99.90
2022-08-27T02:20:58.959Z,99.90
2022-08-27T02:24:42.205Z,99.90
2022-08-27T02:28:24.147Z,99.90
2022-08-27T02:32:06.567Z,99.90
2022-08-27T02:35:48.553Z,99.90
2022-08-27T02:39:30.546Z,99.90
2022-08-27T02:43:15.828Z,99.90
2022-08-27T02:46:59.483Z,99.90
2022-08-27T02:50:42.411Z,99.90
2022-08-27T02:54:26.414Z,99.90
2022-08-27T02:58:09.790Z,99.90
2022-08-27T03:01:52.162Z,99.90
2022-08-27T03:05:34.251Z,99.90
2022-08-27T03:09:16.289Z,99.90
2022-08-27T03:12:58.424Z,99.90
2022-08-27T03:16:40.471Z,99.90
2022-08-27T03:20:23.460Z,99.90
2022-08-27T03:24:09.585Z,99.90
2022-08-27T03:27:53.408Z,99.90
2022-08-27T03:31:35.362Z,99.90
2022-08-27T03:35:17.942Z,99.90
2022-08-27T03:39:00.120Z,99.90
2022-08-27T03:42:43.520Z,99.90
2022-08-27T03:46:30.339Z,99.90
2022-08-27T03:50:12.812Z,99.90
2022-08-27T03:53:54.955Z,99.90
2022-08-27T03:57:37.200Z,99.90
2022-08-27T04:01:19.539Z,99.90
2022-08-27T04:05:01.640Z,99.90
2022-08-27T04:08:43.659Z,99.90
2022-08-27T04:12:27.214Z,99.90
2022-08-27T04:16:09.288Z,99.90
2022-08-27T04:19:54.316Z,99.90
2022-08-27T04:23:36.392Z,99.90
2022-08-27T04:27:19.241Z,99.90
2022-08-27T04:31:03.425Z,99.90
2022-08-27T04:34:45.424Z,99.90
2022-08-27T04:38:27.837Z,99.90
2022-08-27T04:42:09.895Z,99.90
2022-08-27T04:45:52.117Z,99.90
2022-08-27T04:49:34.267Z,99.90
2022-08-27T04:53:17.952Z,99.90
2022-08-27T04:57:00.544Z,99.90
2022-08-27T05:00:44.403Z,99.90
2022-08-27T05:04:26.613Z,99.90
2022-08-27T05:08:10.795Z,99.90
2022-08-27T05:11:54.455Z,99.90
2022-08-27T05:15:36.858Z,99.90
2022-08-27T05:19:18.910Z,99.90
2022-08-27T05:23:01.005Z,99.90
2022-08-27T05:26:43.149Z,99.90
2022-08-27T05:30:25.701Z,99.90
2022-08-27T05:34:10.623Z,99.90
2022-08-27T05:37:56.964Z,99.90
2022-08-27T05:41:39.803Z,99.90
2022-08-27T05:45:22.337Z,99.90
2022-08-27T05:49:04.414Z,99.90
2022-08-27T05:52:46.324Z,99.90
2022-08-27T05:56:30.929Z,99.90
2022-08-27T06:01:05.037Z,99.90
2022-08-27T06:04:55.211Z,99.90
2022-08-27T06:08:56.399Z,99.90
2022-08-27T06:12:48.478Z,99.90
2022-08-27T06:22:10.496Z,99.80
2022-08-27T06:25:53.627Z,99.50
2022-08-27T06:29:44.918Z,99.80
2022-08-27T06:33:43.097Z,99.30
2022-08-27T06:37:37.258Z,99.20
2022-08-27T06:41:37.550Z,98.50
2022-08-27T06:45:28.695Z,98.50
2022-08-27T06:49:27.483Z,98.40
2022-08-27T06:53:24.310Z,97.30
2022-08-27T06:57:24.281Z,96.50
2022-08-27T07:01:22.403Z,96.00
2022-08-27T07:05:16.779Z,95.00
2022-08-27T07:09:09.664Z,94.50
2022-08-27T07:13:10.166Z,93.30
2022-08-27T07:17:01.712Z,92.90
2022-08-27T07:20:46.896Z,90.80
2022-08-27T07:24:33.093Z,89.70
2022-08-27T07:28:16.867Z,86.90
2022-08-27T07:32:03.358Z,83.90
2022-08-27T07:35:49.514Z,82.60
2022-08-27T07:39:34.826Z,78.30
2022-08-27T07:43:41.077Z,74.10
2022-08-27T07:47:26.895Z,72.00
2022-08-27T07:51:57.053Z,68.20
2022-08-27T07:55:42.159Z,70.90
2022-08-27T07:59:27.524Z,64.60
2022-08-27T08:03:13.391Z,61.90
2022-08-27T08:06:58.671Z,60.10
2022-08-27T08:10:43.746Z,58.20
2022-08-27T08:14:32.795Z,56.10
2022-08-27T08:22:22.890Z,52.70
2022-08-27T08:26:28.755Z,53.10
2022-08-27T08:30:14.938Z,54.40
2022-08-27T08:34:22.914Z,49.80
2022-08-27T08:38:09.259Z,51.20
2022-08-27T08:42:38.368Z,47.20
2022-08-27T08:47:07.301Z,49.60
2022-08-27T08:51:15.614Z,49.90
2022-08-27T08:59:46.116Z,48.20
2022-08-27T09:04:03.398Z,46.60
2022-08-27T09:08:32.043Z,45.80
2022-08-27T09:16:27.785Z,41.20
2022-08-27T09:20:34.473Z,42.20
2022-08-27T09:24:24.883Z,44.10
2022-08-27T09:28:47.484Z,40.90
2022-08-27T09:32:55.546Z,42.00
2022-08-27T09:37:34.017Z,41.30
2022-08-27T09:41:26.350Z,42.70
2022-08-27T09:45:21.792Z,41.00
2022-08-27T09:49:19.031Z,40.10
2022-08-27T09:53:12.623Z,41.50
2022-08-27T09:56:59.205Z,40.40
2022-08-27T10:01:07.816Z,40.40
2022-08-27T10:19:07.010Z,40.20
2022-08-27T10:23:38.026Z,40.60
2022-08-27T10:28:07.664Z,39.80
2022-08-27T10:37:07.919Z,39.40
2022-08-27T10:41:39.709Z,39.70
2022-08-27T10:50:40.724Z,43.80
2022-08-27T10:59:39.748Z,47.90
2022-08-27T11:08:39.797Z,49.10
2022-08-27T11:17:42.954Z,50.60
2022-08-27T11:22:12.819Z,51.30
2022-08-27T11:31:12.637Z,52.00
2022-08-27T11:53:52.250Z,52.80
2022-08-27T12:02:44.341Z,53.90
2022-08-27T12:11:47.184Z,53.80
2022-08-27T12:16:15.033Z,53.70
2022-08-27T12:25:17.246Z,52.40
2022-08-27T12:29:47.042Z,53.30
2022-08-27T12:34:17.623Z,54.50
2022-08-27T12:43:19.152Z,53.50
2022-08-27T12:47:50.871Z,53.40
2022-08-27T12:52:21.326Z,53.20
2022-08-27T13:05:50.863Z,54.10
2022-08-27T13:13:43.664Z,51.10
2022-08-27T13:49:45.616Z,50.90
2022-08-27T13:54:16.303Z,50.50
2022-08-27T13:58:47.343Z,50.50
2022-08-27T14:12:18.504Z,51.40
2022-08-27T14:25:49.609Z,50.80
2022-08-27T14:34:48.429Z,50.30
2022-08-27T14:39:18.446Z,49.70
2022-08-27T14:48:28.774Z,49.50
2022-08-27T14:57:22.770Z,49.30
2022-08-27T15:01:52.733Z,49.10
2022-08-27T15:06:23.746Z,50.10
2022-08-27T15:10:53.559Z,50.50
2022-08-27T15:15:23.751Z,50.90
2022-08-27T15:19:53.583Z,50.10
2022-08-27T15:28:53.036Z,48.90
2022-08-27T15:37:55.657Z,48.50
2022-08-27T15:42:25.862Z,48.70
2022-08-27T15:46:55.664Z,49.10
2022-08-27T15:55:56.189Z,48.70
2022-08-27T16:04:55.678Z,49.20
2022-08-27T16:13:56.723Z,49.30
2022-08-27T16:27:28.875Z,49.40
2022-08-27T16:32:01.111Z,49.80
2022-08-27T16:40:58.826Z,50.10
2022-08-27T16:45:30.206Z,50.30
2022-08-27T16:50:00.029Z,50.20
2022-08-27T16:54:30.868Z,49.70
2022-08-27T16:59:01.135Z,49.60
2022-08-27T17:12:31.904Z,52.20
2022-08-27T17:17:01.920Z,52.40
2022-08-27T17:21:31.953Z,52.50
2022-08-27T17:26:01.960Z,52.80
2022-08-27T17:30:34.017Z,53.10
2022-08-27T17:39:34.015Z,52.20
2022-08-27T17:44:04.197Z,52.90
2022-08-27T17:53:04.064Z,55.80
2022-08-27T17:57:40.440Z,56.10
2022-08-27T18:25:45.606Z,58.30
2022-08-27T18:43:47.582Z,61.00
2022-08-27T18:48:16.412Z,60.70
2022-08-27T19:09:30.853Z,64.70
2022-08-27T19:13:13.176Z,65.10
2022-08-27T19:16:56.140Z,64.90
2022-08-27T19:20:38.261Z,65.10
2022-08-27T19:24:21.553Z,66.70
2022-08-27T19:28:03.648Z,67.70
2022-08-27T19:31:45.994Z,67.90
2022-08-27T19:35:28.008Z,68.70
2022-08-27T19:39:12.852Z,69.80
2022-08-27T19:42:54.836Z,70.50
2022-08-27T19:46:37.876Z,71.20
2022-08-27T19:50:20.352Z,72.30
2022-08-27T19:54:02.297Z,72.60
2022-08-27T19:57:44.887Z,74.30
2022-08-27T20:01:27.691Z,73.70
2022-08-27T20:05:18.699Z,74.20
2022-08-27T20:09:10.337Z,73.20
2022-08-27T20:12:52.643Z,74.10
2022-08-27T20:16:36.521Z,73.80
2022-08-27T20:20:22.438Z,75.40
2022-08-27T20:24:04.531Z,76.00
2022-08-27T20:27:47.800Z,76.90
2022-08-27T20:31:30.499Z,76.60
2022-08-27T20:35:13.034Z,75.90
2022-08-27T20:38:55.279Z,76.40
2022-08-27T20:42:38.001Z,77.10
2022-08-27T20:46:24.512Z,76.80
2022-08-27T20:50:07.203Z,76.70
2022-08-27T20:53:49.634Z,78.70
2022-08-27T20:57:31.569Z,79.10
2022-08-27T21:01:13.875Z,79.30
2022-08-27T21:04:56.967Z,79.80
2022-08-27T21:08:39.532Z,80.50
2022-08-27T21:12:22.832Z,81.50
2022-08-27T21:16:05.115Z,82.20
2022-08-27T21:19:47.420Z,81.50
2022-08-27T21:23:30.566Z,82.20
2022-08-27T21:27:12.479Z,82.50
2022-08-27T21:30:54.420Z,83.00
2022-08-27T21:34:36.679Z,85.40
2022-08-27T21:38:18.596Z,84.10
2022-08-27T21:42:01.866Z,85.70
2022-08-27T21:45:44.031Z,84.80
2022-08-27T21:49:26.004Z,85.70
2022-08-27T21:53:07.986Z,85.70
2022-08-27T21:56:49.886Z,85.90
2022-08-27T22:00:45.585Z,87.30
2022-08-27T22:04:29.839Z,87.10
2022-08-27T22:08:15.827Z,87.20
2022-08-27T22:11:57.740Z,88.40
2022-08-27T22:15:40.109Z,89.00
2022-08-27T22:19:22.507Z,89.60
2022-08-27T22:23:10.406Z,88.60
2022-08-27T22:26:52.844Z,87.90
2022-08-27T22:30:34.731Z,89.00
2022-08-27T22:34:17.188Z,89.80
2022-08-27T22:37:59.225Z,90.20
2022-08-27T22:41:41.791Z,90.30
2022-08-27T22:45:28.080Z,90.40
2022-08-27T22:49:10.288Z,90.00
2022-08-27T22:52:53.095Z,90.70
2022-08-27T22:56:35.909Z,90.70
2022-08-27T23:00:21.859Z,90.50
2022-08-27T23:04:06.471Z,91.70
2022-08-27T23:07:48.778Z,92.20
2022-08-27T23:11:31.881Z,92.40
2022-08-27T23:15:16.961Z,92.50
2022-08-27T23:18:58.948Z,93.00
2022-08-27T23:22:41.386Z,93.20
2022-08-27T23:26:42.209Z,93.20
2022-08-27T23:30:26.362Z,93.20
2022-08-27T23:34:08.554Z,93.00
2022-08-27T23:37:51.387Z,93.50
2022-08-27T23:41:33.377Z,93.70
2022-08-27T23:45:22.689Z,94.30
2022-08-27T23:49:04.821Z,93.80
2022-08-27T23:52:47.744Z,93.90
2022-08-27T23:56:29.919Z,93.50
